Terminal Aerodrome Forecast
Issued by NWS

Home | Current Version | Previous Version | Text Only | Print | Product List | Glossary On
Versions: 1 2 3 4 5 6 7 8 9 10 11 12
819
FTUS44 KLIX 251127
TAFGPT
TAF
KGPT 251127Z 2512/2612 VRB04KT P6SM SCT025 SCT250
     FM251500 15008KT P6SM SCT030 BKN080
     FM260100 15008KT P6SM SCT250
     FM261000 16006KT P6SM BKN090=

USA.gov is the U.S. government's official web portal to all federal, state and local government web resources and services.